.
WxDataArchive / Data Records for 2013-02-13
2013-02-12 February 2013 2013-02-14

Data Records for Wednesday, 13 February 2013

Time	Temp	Chill	HIndex	Humid	Dewpt	 Wind 	HiWind	WindDir	Rain 	Barom 
-----	----	-----	------	-----	-----	------	------	-------	-----	----- 
00:00	28.8	28.8	28.8	74	21.6	0	1	270	0.00	29.952 
00:05	28.8	28.8	28.8	74	21.6	0	1	270	0.00	29.952 
00:10	28.8	28.8	28.8	74	21.6	0	1	270	0.00	29.952 
00:15	28.8	28.8	28.8	75	21.9	0	1	270	0.00	29.951 
00:20	28.8	28.8	28.8	75	21.9	0	1	270	0.00	29.951 
00:25	28.8	28.8	28.8	75	21.9	0	2	270	0.00	29.951 
00:30	28.8	28.8	28.8	75	21.9	0	2	270	0.00	29.949 
00:35	28.7	28.7	28.7	75	21.8	0	3	270	0.00	29.949 
00:40	28.7	28.7	28.7	74	21.5	0	2	270	0.00	29.949 
00:45	28.7	28.7	28.7	74	21.5	1	2	270	0.00	29.955 
00:50	28.5	28.5	28.5	74	21.3	0	1	270	0.00	29.955 
00:55	28.5	28.5	28.5	74	21.3	0	1	270	0.00	29.955 
01:00	28.7	28.7	28.7	75	21.8	0	1	270	0.00	29.948 
01:05	28.7	28.7	28.7	75	21.8	0	1	270	0.00	29.948 
01:10	28.7	28.7	28.7	75	21.8	0	1	270	0.00	29.948 
01:15	28.5	28.5	28.5	75	21.6	0	0	---	0.00	29.943 
01:20	28.5	28.5	28.5	75	21.6	0	1	270	0.00	29.943 
01:25	28.5	28.5	28.5	76	21.9	0	2	270	0.00	29.943 
01:30	28.4	28.4	28.4	75	21.5	1	2	270	0.00	29.946 
01:35	28.4	28.4	28.4	75	21.5	0	2	270	0.00	29.946 
01:40	28.2	28.2	28.2	75	21.3	0	2	270	0.00	29.946 
01:45	28.1	28.1	28.1	75	21.2	0	0	---	0.00	29.944 
01:50	28.1	28.1	28.1	75	21.2	0	1	270	0.00	29.944 
01:55	28.1	28.1	28.1	75	21.2	0	1	270	0.00	29.944 
02:00	28.1	28.1	28.1	76	21.5	0	1	270	0.00	29.941 
02:05	28.1	28.1	28.1	76	21.5	0	1	270	0.00	29.941 
02:10	28.1	28.1	28.1	76	21.5	0	1	270	0.00	29.941 
02:15	28.1	28.1	28.1	76	21.5	0	2	270	0.00	29.937 
02:20	28.1	28.1	28.1	76	21.5	0	1	270	0.00	29.937 
02:25	28.1	28.1	28.1	76	21.5	0	0	---	0.00	29.937 
02:30	28.1	28.1	28.1	76	21.5	0	1	270	0.00	29.929 
02:35	27.9	27.9	27.9	76	21.3	0	1	270	0.00	29.929 
02:40	27.9	27.9	27.9	76	21.3	0	0	---	0.00	29.929 
02:45	27.9	27.9	27.9	76	21.3	0	0	---	0.00	29.924 
02:50	27.9	27.9	27.9	76	21.3	0	0	---	0.00	29.924 
02:55	27.9	27.9	27.9	77	21.6	0	1	270	0.00	29.924 
03:00	27.8	27.8	27.8	77	21.5	0	2	270	0.00	29.924 
03:05	27.8	27.8	27.8	77	21.5	0	1	270	0.00	29.924 
03:10	27.8	27.8	27.8	77	21.5	0	1	270	0.00	29.924 
03:15	27.8	27.8	27.8	77	21.5	0	1	270	0.00	29.917 
03:20	27.6	27.6	27.6	77	21.4	0	1	270	0.00	29.917 
03:25	27.6	27.6	27.6	77	21.4	0	1	270	0.00	29.917 
03:30	27.6	27.6	27.6	77	21.4	0	1	270	0.00	29.911 
03:35	27.5	27.5	27.5	77	21.3	0	2	270	0.00	29.911 
03:40	27.5	27.5	27.5	77	21.3	0	1	270	0.00	29.911 
03:45	27.5	27.5	27.5	77	21.3	0	2	270	0.00	29.911 
03:50	27.5	27.5	27.5	77	21.3	0	2	270	0.00	29.911 
03:55	27.3	27.3	27.3	77	21.1	0	2	270	0.00	29.911 
04:00	27.2	27.2	27.2	77	21.0	0	1	270	0.00	29.906 
04:05	27.2	27.2	27.2	77	21.0	0	2	270	0.00	29.906 
04:10	27.2	27.2	27.2	77	21.0	0	2	270	0.00	29.906 
04:15	27.0	27.0	27.0	77	20.8	0	2	270	0.00	29.903 
04:20	27.0	27.0	27.0	78	21.1	0	0	---	0.00	29.903 
04:25	27.0	27.0	27.0	78	21.1	0	2	270	0.00	29.903 
04:30	27.0	27.0	27.0	78	21.1	0	1	270	0.00	29.899 
04:35	27.0	27.0	27.0	78	21.1	0	2	270	0.00	29.899 
04:40	26.9	26.9	26.9	78	21.0	0	3	270	0.00	29.899 
04:45	26.9	26.9	26.9	78	21.0	0	0	---	0.00	29.895 
04:50	26.9	26.9	26.9	78	21.0	0	0	---	0.00	29.895 
04:55	26.9	26.9	26.9	78	21.0	0	0	---	0.00	29.895 
05:00	26.9	26.9	26.9	78	21.0	0	2	315	0.00	29.894 
05:05	26.7	26.7	26.7	78	20.8	0	1	315	0.00	29.894 
05:10	26.7	26.7	26.7	78	20.8	0	0	---	0.00	29.894 
05:15	26.7	26.7	26.7	79	21.1	0	0	---	0.00	29.890 
05:20	26.7	26.7	26.7	79	21.1	0	0	---	0.00	29.890 
05:25	26.7	26.7	26.7	79	21.1	0	0	---	0.00	29.890 
05:30	26.7	26.7	26.7	79	21.1	0	0	---	0.00	29.890 
05:35	26.7	26.7	26.7	79	21.1	0	0	---	0.00	29.890 
05:40	26.7	26.7	26.7	79	21.1	0	1	315	0.00	29.890 
05:45	26.7	26.7	26.7	79	21.1	0	0	---	0.00	29.885 
05:50	26.7	26.7	26.7	79	21.1	0	1	315	0.00	29.885 
05:55	26.6	26.6	26.6	79	21.0	0	0	---	0.00	29.885 
06:00	26.6	26.6	26.6	79	21.0	0	1	315	0.00	29.883 
06:05	26.6	26.6	26.6	79	21.0	0	2	315	0.00	29.883 
06:10	26.4	26.4	26.4	79	20.8	0	1	315	0.00	29.883 
06:15	26.4	26.4	26.4	80	21.1	0	0	---	0.00	29.886 
06:20	26.4	26.4	26.4	80	21.1	0	0	---	0.00	29.886 
06:25	26.4	26.4	26.4	80	21.1	0	2	315	0.00	29.886 
06:30	26.3	26.3	26.3	80	21.0	0	2	315	0.00	29.875 
06:35	26.1	26.1	26.1	80	20.8	0	1	315	0.00	29.875 
06:40	26.1	26.1	26.1	80	20.8	0	2	315	0.00	29.875 
06:45	26.1	26.1	26.1	80	20.8	0	0	---	0.00	29.872 
06:50	26.1	26.1	26.1	80	20.8	0	0	---	0.00	29.872 
06:55	26.1	26.1	26.1	80	20.8	0	0	---	0.00	29.872 
07:00	26.1	26.1	26.1	81	21.1	0	2	315	0.00	29.869 
07:05	26.1	26.1	26.1	81	21.1	0	1	315	0.00	29.869 
07:10	26.0	26.0	26.0	81	21.0	0	1	315	0.00	29.869 
07:15	26.0	26.0	26.0	81	21.0	0	0	---	0.00	29.867 
07:20	26.0	26.0	26.0	81	21.0	0	1	315	0.00	29.867 
07:25	25.8	25.8	25.8	81	20.8	0	0	---	0.00	29.867 
07:30	25.8	25.8	25.8	81	20.8	0	1	315	0.00	29.863 
07:35	25.8	25.8	25.8	81	20.8	0	0	---	0.00	29.863 
07:40	25.8	25.8	25.8	81	20.8	0	2	315	0.00	29.863 
07:45	25.8	25.8	25.8	81	20.8	0	1	315	0.00	29.858 
07:50	25.8	25.8	25.8	81	20.8	0	1	315	0.00	29.858 
07:55	25.8	25.8	25.8	81	20.8	0	1	315	0.00	29.858 
08:00	25.8	25.8	25.8	81	20.8	0	0	---	0.00	29.857 
08:05	25.8	25.8	25.8	81	20.8	0	0	---	0.00	29.857 
08:10	25.8	25.8	25.8	81	20.8	0	0	---	0.00	29.857 
08:15	25.8	25.8	25.8	81	20.8	0	0	---	0.00	29.855 
08:20	26.0	26.0	26.0	82	21.3	1	3	338	0.00	29.855 
08:25	26.0	26.0	26.0	82	21.3	0	3	45	0.00	29.855 
08:30	26.1	26.1	26.1	82	21.4	0	1	45	0.00	29.846 
08:35	26.1	26.1	26.1	81	21.1	0	1	45	0.00	29.846 
08:40	26.0	26.0	26.0	81	21.0	0	0	---	0.00	29.846 
08:45	26.0	26.0	26.0	82	21.3	0	2	45	0.00	29.842 
08:50	26.1	26.1	26.1	82	21.4	0	1	45	0.00	29.842 
08:55	26.3	26.3	26.3	82	21.6	0	3	45	0.00	29.842 
09:00	26.3	26.3	26.3	82	21.6	0	1	45	0.00	29.844 
09:05	26.3	26.3	26.3	82	21.6	0	0	---	0.00	29.844 
09:10	26.4	26.4	26.4	81	21.4	0	1	45	0.00	29.844 
09:15	26.4	26.4	26.4	81	21.4	0	2	45	0.00	29.864 
09:20	26.6	26.6	26.6	81	21.6	0	1	45	0.00	29.864 
09:25	26.7	26.7	26.7	81	21.7	0	2	45	0.00	29.864 
09:30	26.9	26.9	26.9	81	21.9	0	2	45	0.00	29.873 
09:35	27.2	27.2	27.2	81	22.2	0	0	---	0.00	29.873 
09:40	27.3	27.3	27.3	81	22.3	0	2	45	0.00	29.873 
09:45	27.3	27.3	27.3	81	22.3	0	2	45	0.00	29.874 
09:50	27.5	27.5	27.5	80	22.2	0	2	45	0.00	29.874 
09:55	27.6	27.6	27.6	80	22.3	0	2	45	0.00	29.874 
10:00	27.8	27.8	27.8	80	22.4	0	1	45	0.00	29.869 
10:05	27.8	27.8	27.8	79	22.2	0	1	45	0.00	29.869 
10:10	27.9	27.9	27.9	79	22.2	0	1	45	0.00	29.869 
10:15	28.1	28.1	28.1	79	22.4	0	2	45	0.00	29.870 
10:20	28.4	28.4	28.4	78	22.4	0	2	45	0.00	29.870 
10:25	28.7	28.7	28.7	78	22.7	1	5	45	0.00	29.870 
10:30	29.3	29.3	29.3	78	23.3	0	1	112	0.00	29.869 
10:35	29.7	29.7	29.7	77	23.4	0	1	112	0.00	29.869 
10:40	29.8	29.8	29.8	75	22.9	0	2	112	0.00	29.869 
10:45	29.8	29.8	29.8	74	22.5	0	2	112	0.00	29.866 
10:50	30.1	30.1	30.1	74	22.8	0	2	112	0.00	29.866 
10:55	30.3	30.3	30.3	73	22.7	1	3	112	0.00	29.866 
11:00	30.4	30.4	30.4	73	22.8	0	2	112	0.00	29.858 
11:05	30.7	30.7	30.7	72	22.8	0	2	112	0.00	29.858 
11:10	31.0	31.0	31.0	72	23.1	0	2	112	0.00	29.858 
11:15	31.5	31.5	31.5	71	23.2	0	2	112	0.00	29.856 
11:20	31.8	31.8	31.8	70	23.2	1	5	112	0.00	29.856 
11:25	32.2	32.2	32.2	69	23.2	0	4	112	0.00	29.856 
11:30	32.2	32.2	32.2	69	23.2	0	2	112	0.00	29.851 
11:35	32.4	32.4	32.4	69	23.4	0	2	112	0.00	29.851 
11:40	32.5	32.5	32.5	69	23.5	1	2	90	0.00	29.851 
11:45	32.8	32.8	32.8	68	23.4	1	2	90	0.00	29.841 
11:50	33.1	33.1	33.1	67	23.4	0	2	90	0.00	29.841 
11:55	33.5	33.5	33.5	66	23.4	0	2	90	0.00	29.841 
12:00	33.8	33.8	33.8	66	23.7	1	2	90	0.00	29.836 
12:05	34.3	34.3	34.3	66	24.1	0	2	90	0.00	29.836 
12:10	34.6	34.6	34.6	65	24.1	0	1	90	0.00	29.836 
12:15	34.7	34.7	34.7	64	23.8	1	2	90	0.00	29.831 
12:20	34.9	34.9	34.9	63	23.6	0	2	90	0.00	29.831 
12:25	35.2	35.2	35.2	64	24.3	0	2	90	0.00	29.831 
12:30	35.5	35.5	35.5	62	23.8	1	3	90	0.00	29.821 
12:35	35.9	35.9	35.9	63	24.5	0	2	90	0.00	29.821 
12:40	36.3	36.3	36.3	62	24.5	0	3	90	0.00	29.821 
12:45	36.5	36.5	36.5	61	24.3	1	3	90	0.00	29.817 
12:50	36.8	36.8	36.8	60	24.2	0	2	90	0.00	29.817 
12:55	36.9	36.9	36.9	59	23.9	1	3	90	0.00	29.817 
13:00	37.0	37.0	37.0	58	23.6	0	1	90	0.00	29.810 
13:05	37.2	37.2	37.2	58	23.8	1	3	68	0.00	29.810 
13:10	37.5	37.5	37.5	58	24.1	1	3	68	0.00	29.810 
13:15	37.8	37.8	37.8	58	24.4	0	3	248	0.00	29.802 
13:20	38.0	38.0	38.0	56	23.7	0	4	248	0.00	29.802 
13:25	38.3	38.3	38.3	55	23.6	1	3	248	0.00	29.802 
13:30	38.5	38.5	38.5	55	23.8	1	3	248	0.00	29.799 
13:35	38.8	38.8	38.8	55	24.0	1	3	248	0.00	29.799 
13:40	38.9	38.9	38.9	54	23.7	1	2	248	0.00	29.799 
13:45	39.1	39.1	39.1	54	23.9	0	3	248	0.00	29.791 
13:50	39.6	39.6	39.6	55	24.8	1	2	248	0.00	29.791 
13:55	39.9	39.9	39.9	52	23.7	1	4	338	0.00	29.791 
14:00	40.2	40.2	40.2	53	24.5	1	4	248	0.00	29.783 
14:05	40.5	40.5	40.5	53	24.7	2	3	270	0.00	29.783 
14:10	40.3	40.3	40.3	52	24.1	1	3	0	0.00	29.783 
14:15	40.3	40.3	40.3	53	24.5	1	3	292	0.00	29.773 
14:20	40.5	40.5	40.5	52	24.3	1	3	292	0.00	29.773 
14:25	40.6	40.6	40.6	52	24.4	1	4	248	0.00	29.773 
14:30	40.9	40.9	40.9	53	25.1	1	4	248	0.00	29.767 
14:35	41.1	41.1	41.1	52	24.8	1	4	248	0.00	29.767 
14:40	41.2	41.2	41.2	52	24.9	1	3	248	0.00	29.767 
14:45	41.6	41.6	41.6	52	25.3	1	4	248	0.00	29.763 
14:50	41.6	41.6	41.6	50	24.4	1	4	248	0.00	29.763 
14:55	41.5	41.5	41.5	51	24.7	1	5	248	0.00	29.763 
15:00	41.6	41.6	41.6	52	25.3	1	4	315	0.00	29.756 
15:05	41.6	41.6	41.6	53	25.8	1	3	248	0.00	29.756 
15:10	41.9	41.9	41.9	52	25.6	2	4	248	0.00	29.756 
15:15	42.1	42.1	42.1	52	25.8	1	3	248	0.00	29.753 
15:20	42.3	42.3	42.3	52	25.9	2	6	248	0.00	29.753 
15:25	42.3	42.3	42.3	51	25.5	1	3	248	0.00	29.753 
15:30	42.3	42.3	42.3	51	25.5	1	3	338	0.00	29.756 
15:35	42.2	42.2	42.2	51	25.4	1	4	248	0.00	29.756 
15:40	42.1	42.1	42.1	52	25.8	1	3	248	0.00	29.756 
15:45	42.1	42.1	42.1	53	26.2	1	4	248	0.00	29.754 
15:50	42.2	42.2	42.2	53	26.3	1	3	248	0.00	29.754 
15:55	42.3	42.3	42.3	53	26.4	1	3	315	0.00	29.754 
16:00	42.3	42.3	42.3	53	26.4	1	3	292	0.00	29.753 
16:05	42.5	42.5	42.5	53	26.6	1	3	248	0.00	29.753 
16:10	42.3	42.3	42.3	53	26.4	1	3	248	0.00	29.753 
16:15	42.2	42.2	42.2	53	26.3	1	4	248	0.00	29.754 
16:20	42.3	42.3	42.3	53	26.4	1	4	248	0.00	29.754 
16:25	42.3	42.3	42.3	53	26.4	1	4	248	0.00	29.754 
16:30	42.2	42.2	42.2	53	26.3	1	2	248	0.00	29.753 
16:35	42.2	42.2	42.2	54	26.8	0	3	248	0.00	29.753 
16:40	42.2	42.2	42.2	54	26.8	1	4	248	0.00	29.753 
16:45	42.1	42.1	42.1	54	26.7	2	5	248	0.00	29.754 
16:50	42.1	42.1	42.1	55	27.1	0	2	248	0.00	29.754 
16:55	42.1	42.1	42.1	54	26.7	1	4	248	0.00	29.754 
17:00	41.9	41.9	41.9	54	26.5	1	4	248	0.00	29.758 
17:05	41.8	41.8	41.8	55	26.8	0	3	225	0.00	29.758 
17:10	41.8	41.8	41.8	55	26.8	0	2	225	0.00	29.758 
17:15	41.6	41.6	41.6	55	26.6	1	3	248	0.00	29.761 
17:20	41.6	41.6	41.6	55	26.6	0	3	248	0.00	29.761 
17:25	41.5	41.5	41.5	56	27.0	1	3	248	0.00	29.761 
17:30	41.3	41.3	41.3	56	26.8	0	2	248	0.00	29.766 
17:35	41.1	41.1	41.1	57	27.0	0	1	248	0.00	29.766 
17:40	40.9	40.9	40.9	57	26.9	0	1	248	0.00	29.766 
17:45	40.8	40.8	40.8	57	26.8	0	3	248	0.00	29.767 
17:50	40.5	40.5	40.5	58	26.9	0	2	248	0.00	29.767 
17:55	40.3	40.3	40.3	58	26.7	0	1	248	0.00	29.767 
18:00	40.1	40.1	40.1	58	26.5	0	1	248	0.00	29.772 
18:05	39.8	39.8	39.8	59	26.7	0	0	---	0.00	29.772 
18:10	39.3	39.3	39.3	60	26.6	0	1	248	0.00	29.772 
18:15	39.1	39.1	39.1	60	26.4	0	1	248	0.00	29.780 
18:20	38.8	38.8	38.8	61	26.5	0	0	---	0.00	29.780 
18:25	38.3	38.3	38.3	62	26.4	0	0	---	0.00	29.780 
18:30	37.9	37.9	37.9	63	26.4	0	1	248	0.00	29.785 
18:35	37.8	37.8	37.8	63	26.4	0	1	248	0.00	29.785 
18:40	37.5	37.5	37.5	64	26.4	0	0	---	0.00	29.785 
18:45	37.0	37.0	37.0	64	26.0	0	0	---	0.00	29.789 
18:50	36.9	36.9	36.9	65	26.3	0	0	---	0.00	29.789 
18:55	36.6	36.6	36.6	65	26.0	0	0	---	0.00	29.789 
19:00	36.3	36.3	36.3	66	26.0	0	0	---	0.00	29.790 
19:05	36.2	36.2	36.2	66	26.0	0	0	---	0.00	29.790 
19:10	35.9	35.9	35.9	67	26.0	0	0	---	0.00	29.790 
19:15	35.6	35.6	35.6	67	25.7	0	0	---	0.00	29.792 
19:20	35.3	35.3	35.3	68	25.8	0	0	---	0.00	29.792 
19:25	35.0	35.0	35.0	68	25.5	0	0	---	0.00	29.792 
19:30	34.7	34.7	34.7	69	25.6	0	0	---	0.00	29.798 
19:35	34.4	34.4	34.4	70	25.6	0	0	---	0.00	29.798 
19:40	34.3	34.3	34.3	70	25.5	0	0	---	0.00	29.798 
19:45	34.0	34.0	34.0	71	25.6	0	0	---	0.00	29.800 
19:50	33.7	33.7	33.7	72	25.7	0	0	---	0.00	29.800 
19:55	33.5	33.5	33.5	72	25.5	0	0	---	0.00	29.800 
20:00	33.4	33.4	33.4	73	25.7	0	0	---	0.00	29.807 
20:05	33.4	33.4	33.4	74	26.0	0	1	248	0.00	29.807 
20:10	33.5	33.5	33.5	75	26.4	0	0	---	0.00	29.807 
20:15	33.7	33.7	33.7	75	26.6	0	1	248	0.00	29.807 
20:20	33.8	33.8	33.8	76	27.1	0	0	---	0.00	29.807 
20:25	33.8	33.8	33.8	76	27.1	0	0	---	0.00	29.807 
20:30	33.7	33.7	33.7	76	27.0	0	0	---	0.00	29.806 
20:35	33.7	33.7	33.7	77	27.3	0	0	---	0.00	29.806 
20:40	33.7	33.7	33.7	77	27.3	0	1	248	0.00	29.806 
20:45	33.5	33.5	33.5	77	27.1	0	1	248	0.00	29.806 
20:50	33.5	33.5	33.5	77	27.1	0	0	---	0.00	29.806 
20:55	33.5	33.5	33.5	78	27.4	0	1	248	0.00	29.806 
21:00	33.4	33.4	33.4	78	27.3	0	0	---	0.00	29.809 
21:05	33.4	33.4	33.4	78	27.3	0	1	248	0.00	29.809 
21:10	33.2	33.2	33.2	79	27.4	0	0	---	0.00	29.809 
21:15	33.2	33.2	33.2	79	27.4	0	1	248	0.00	29.807 
21:20	33.2	33.2	33.2	80	27.7	0	1	248	0.00	29.807 
21:25	33.2	33.2	33.2	80	27.7	0	2	248	0.00	29.807 
21:30	33.1	33.1	33.1	80	27.6	0	1	248	0.00	29.807 
21:35	33.1	33.1	33.1	80	27.6	0	1	248	0.00	29.807 
21:40	33.1	33.1	33.1	80	27.6	0	1	248	0.00	29.807 
21:45	33.1	33.1	33.1	80	27.6	0	1	248	0.00	29.809 
21:50	33.1	33.1	33.1	80	27.6	0	1	248	0.00	29.809 
21:55	33.1	33.1	33.1	80	27.6	0	1	248	0.00	29.809 
22:00	32.9	32.9	32.9	80	27.4	0	1	248	0.00	29.812 
22:05	32.9	32.9	32.9	81	27.7	0	0	---	0.00	29.812 
22:10	32.9	32.9	32.9	81	27.7	0	0	---	0.00	29.812 
22:15	32.9	32.9	32.9	81	27.7	0	1	248	0.00	29.807 
22:20	32.9	32.9	32.9	81	27.7	0	1	248	0.00	29.807 
22:25	32.9	32.9	32.9	81	27.7	0	1	248	0.00	29.807 
22:30	33.1	33.1	33.1	81	27.9	0	1	248	0.00	29.810 
22:35	33.1	33.1	33.1	81	27.9	0	1	248	0.00	29.810 
22:40	33.1	33.1	33.1	81	27.9	0	2	248	0.00	29.810 
22:45	33.2	33.2	33.2	81	28.0	0	1	248	0.00	29.809 
22:50	33.2	33.2	33.2	81	28.0	0	0	---	0.00	29.809 
22:55	33.2	33.2	33.2	81	28.0	0	1	248	0.00	29.809 
23:00	33.2	33.2	33.2	81	28.0	0	1	248	0.00	29.810 
23:05	33.2	33.2	33.2	81	28.0	0	2	248	0.00	29.810 
23:10	33.4	33.4	33.4	81	28.2	0	2	248	0.00	29.810 
23:15	33.4	33.4	33.4	81	28.2	0	1	248	0.00	29.806 
23:20	33.4	33.4	33.4	81	28.2	0	2	248	0.00	29.806 
23:25	33.4	33.4	33.4	81	28.2	0	1	248	0.00	29.806 
23:30	33.5	33.5	33.5	81	28.3	0	1	248	0.00	29.802 
23:35	33.5	33.5	33.5	80	28.0	0	2	248	0.00	29.802 
23:40	33.7	33.7	33.7	80	28.2	0	2	248	0.00	29.802 
23:45	33.8	33.8	33.8	80	28.3	0	3	248	0.00	29.803 
23:50	33.8	33.8	33.8	80	28.3	0	1	248	0.00	29.803 
23:55	34.0	34.0	34.0	79	28.2	0	3	248	0.00	29.803 

CoCoRaHS
IN-AL-39
A2 Web Hosting
Creative Commons License
GoDaddy
search engine by freefind advanced

loaded 2018-11-15 18:09:33 • last modified 2010-11-18 10:43:29
Privacy PolicyDisclaimer
• wx.awcolley.com is powered by PmWiki v.2002016 •
• all content (unless otherwise noted) © 2018 A W Colley